createdAt,value
2022-11-27T00:01:15.667Z,64.97
2022-11-27T00:03:44.252Z,53.43
2022-11-27T00:06:15.596Z,56.87
2022-11-27T00:08:44.369Z,57.20
2022-11-27T00:11:14.515Z,57.40
2022-11-27T00:13:42.699Z,54.50
2022-11-27T00:16:13.115Z,55.83
2022-11-27T00:18:41.790Z,61.20
2022-11-27T00:21:12.367Z,52.83
2022-11-27T00:23:40.323Z,50.63
2022-11-27T00:26:09.005Z,54.87
2022-11-27T00:28:37.203Z,51.57
2022-11-27T00:31:08.372Z,48.50
2022-11-27T00:33:38.295Z,53.23
2022-11-27T00:36:07.534Z,46.10
2022-11-27T00:38:38.679Z,47.87
2022-11-27T00:41:08.103Z,50.37
2022-11-27T00:43:43.623Z,44.50
2022-11-27T00:46:12.544Z,47.17
2022-11-27T00:48:42.175Z,43.53
2022-11-27T00:51:12.264Z,41.63
2022-11-27T00:53:40.575Z,56.13
2022-11-27T00:56:09.416Z,50.73
2022-11-27T00:58:37.519Z,47.30
2022-11-27T01:01:07.478Z,50.60
2022-11-27T01:03:35.774Z,51.17
2022-11-27T01:06:06.144Z,53.60
2022-11-27T01:08:34.595Z,54.17
2022-11-27T01:11:02.968Z,47.33
2022-11-27T01:13:32.857Z,45.63
2022-11-27T01:16:02.023Z,47.10
2022-11-27T01:18:30.694Z,43.07
2022-11-27T01:20:58.558Z,51.57
2022-11-27T01:23:27.934Z,47.77
2022-11-27T01:25:55.831Z,49.53
2022-11-27T01:28:25.032Z,46.27
2022-11-27T01:30:52.954Z,44.90
2022-11-27T01:33:20.854Z,42.60
2022-11-27T01:35:56.653Z,46.37
2022-11-27T01:38:25.130Z,47.73
2022-11-27T01:40:59.620Z,43.63
2022-11-27T01:43:41.954Z,50.23
2022-11-27T01:46:23.333Z,42.67
2022-11-27T01:48:52.494Z,43.30
2022-11-27T01:51:20.876Z,40.23
2022-11-27T01:53:49.324Z,52.90
2022-11-27T01:56:19.654Z,44.43
2022-11-27T01:58:48.046Z,45.77
2022-11-27T02:01:15.977Z,42.17
2022-11-27T02:03:43.897Z,39.13
2022-11-27T02:06:13.849Z,48.70
2022-11-27T02:08:42.974Z,43.37
2022-11-27T02:11:18.093Z,44.77
2022-11-27T02:13:55.695Z,35.43
2022-11-27T02:16:31.039Z,45.40
2022-11-27T02:19:06.725Z,42.70
2022-11-27T02:21:39.898Z,37.00
2022-11-27T02:24:32.687Z,38.40
2022-11-27T02:27:36.110Z,43.87
2022-11-27T02:30:07.261Z,39.07
2022-11-27T02:32:40.267Z,43.73
2022-11-27T02:35:15.195Z,36.63
2022-11-27T02:37:48.431Z,39.47
2022-11-27T02:40:22.099Z,37.47
2022-11-27T02:42:54.604Z,36.07
2022-11-27T02:45:28.097Z,34.30
2022-11-27T02:47:57.881Z,46.40
2022-11-27T02:50:27.862Z,39.77
2022-11-27T02:53:02.417Z,40.10
2022-11-27T02:55:34.773Z,38.77
2022-11-27T02:58:06.695Z,37.23
2022-11-27T03:00:37.393Z,33.43
2022-11-27T03:03:09.525Z,39.97
2022-11-27T03:05:41.639Z,34.73
2022-11-27T03:08:14.933Z,37.63
2022-11-27T03:10:48.870Z,30.53
2022-11-27T03:13:17.113Z,37.33
2022-11-27T03:15:56.129Z,35.87
2022-11-27T03:18:32.402Z,31.33
2022-11-27T03:21:06.302Z,34.93
2022-11-27T03:23:34.175Z,32.37
2022-11-27T03:26:02.062Z,29.37
2022-11-27T03:28:30.800Z,34.20
2022-11-27T03:31:00.254Z,35.47
2022-11-27T03:33:28.222Z,33.53
2022-11-27T03:35:56.190Z,41.43
2022-11-27T03:38:24.109Z,36.77
2022-11-27T03:41:01.021Z,43.83
2022-11-27T03:43:35.607Z,39.90
2022-11-27T03:46:10.878Z,38.13
2022-11-27T03:48:48.451Z,30.33
2022-11-27T03:51:20.921Z,41.13
2022-11-27T03:53:56.905Z,39.93
2022-11-27T03:56:36.112Z,38.03
2022-11-27T03:59:09.295Z,45.27
2022-11-27T04:01:38.874Z,41.10
2022-11-27T04:04:06.936Z,41.80
2022-11-27T04:06:35.039Z,42.67
2022-11-27T04:09:02.889Z,42.27
2022-11-27T04:11:30.886Z,37.03
2022-11-27T04:14:00.661Z,42.27
2022-11-27T04:16:28.676Z,37.27
2022-11-27T04:18:58.057Z,38.87
2022-11-27T04:21:25.997Z,35.47
2022-11-27T04:23:53.870Z,37.27
2022-11-27T04:26:21.887Z,41.47
2022-11-27T04:28:49.706Z,41.87
2022-11-27T04:31:17.720Z,39.90
2022-11-27T04:33:45.593Z,38.13
2022-11-27T04:36:14.786Z,40.90
2022-11-27T04:38:42.612Z,39.30
2022-11-27T04:41:10.526Z,40.37
2022-11-27T04:43:38.329Z,38.60
2022-11-27T04:46:06.478Z,36.40
2022-11-27T04:48:34.391Z,43.10
2022-11-27T04:51:02.341Z,38.10
2022-11-27T04:53:31.478Z,40.00
2022-11-27T04:55:59.407Z,37.57
2022-11-27T04:58:27.250Z,39.50
2022-11-27T05:00:55.110Z,39.50
2022-11-27T05:03:23.030Z,40.20
2022-11-27T05:05:56.450Z,39.33
2022-11-27T05:08:24.387Z,37.60
2022-11-27T05:11:01.947Z,36.30
2022-11-27T05:13:30.060Z,37.80
2022-11-27T05:15:58.002Z,34.13
2022-11-27T05:18:25.985Z,37.30
2022-11-27T05:20:58.797Z,32.83
2022-11-27T05:23:27.216Z,34.63
2022-11-27T05:25:55.577Z,39.20
2022-11-27T05:28:26.790Z,33.77
2022-11-27T05:30:55.201Z,35.73
2022-11-27T05:33:23.073Z,36.67
2022-11-27T05:35:50.950Z,37.47
2022-11-27T05:38:18.787Z,33.83
2022-11-27T05:40:46.602Z,35.10
2022-11-27T05:43:14.433Z,30.83
2022-11-27T05:45:43.637Z,41.63
2022-11-27T05:48:11.459Z,33.23
2022-11-27T05:50:39.833Z,36.80
2022-11-27T05:53:07.788Z,35.30
2022-11-27T05:55:35.624Z,38.40
2022-11-27T05:58:03.526Z,40.97
2022-11-27T06:00:31.602Z,35.70
2022-11-27T06:03:00.869Z,37.43
2022-11-27T06:05:29.013Z,35.67
2022-11-27T06:07:56.930Z,36.40
2022-11-27T06:10:24.795Z,31.47
2022-11-27T06:12:52.587Z,36.00
2022-11-27T06:15:20.442Z,39.80
2022-11-27T06:17:49.888Z,39.00
2022-11-27T06:20:20.199Z,30.73
2022-11-27T06:22:48.146Z,34.50
2022-11-27T06:25:16.043Z,30.13
2022-11-27T06:27:44.165Z,38.37
2022-11-27T06:30:13.091Z,36.33
2022-11-27T06:32:40.947Z,38.93
2022-11-27T06:35:09.883Z,35.43
2022-11-27T06:37:39.086Z,38.40
2022-11-27T06:40:08.486Z,33.13
2022-11-27T06:42:36.306Z,40.80
2022-11-27T06:45:04.369Z,38.50
2022-11-27T06:47:32.164Z,31.70
2022-11-27T06:50:00.214Z,36.73
2022-11-27T06:52:28.033Z,39.63
2022-11-27T06:54:57.250Z,37.67
2022-11-27T06:57:25.051Z,33.93
2022-11-27T06:59:53.176Z,40.50
2022-11-27T07:02:21.062Z,40.37
2022-11-27T07:04:49.012Z,40.13
2022-11-27T07:07:16.909Z,35.63
2022-11-27T07:09:44.836Z,36.97
2022-11-27T07:12:13.988Z,34.87
2022-11-27T07:14:42.758Z,36.47
2022-11-27T07:17:10.668Z,38.47
2022-11-27T07:19:38.557Z,41.30
2022-11-27T07:22:06.560Z,36.50
2022-11-27T07:24:35.489Z,39.37
2022-11-27T07:27:03.325Z,38.37
2022-11-27T07:29:32.481Z,35.33
2022-11-27T07:32:00.318Z,39.73
2022-11-27T07:34:28.251Z,39.33
2022-11-27T07:36:56.279Z,38.53
2022-11-27T07:39:46.242Z,36.93
2022-11-27T07:42:37.092Z,35.70
2022-11-27T07:45:01.340Z,34.70
2022-11-27T07:47:30.938Z,33.90
2022-11-27T07:50:00.275Z,40.60
2022-11-27T07:52:28.405Z,39.87
2022-11-27T07:54:56.296Z,37.37
2022-11-27T07:57:24.152Z,34.67
2022-11-27T07:59:52.010Z,35.37
2022-11-27T08:02:21.367Z,34.57
2022-11-27T08:04:49.257Z,39.53
2022-11-27T08:07:17.166Z,37.03
2022-11-27T08:09:45.151Z,32.80
2022-11-27T08:12:12.943Z,36.73
2022-11-27T08:14:41.297Z,37.37
2022-11-27T08:17:13.188Z,34.90
2022-11-27T08:19:42.466Z,42.63
2022-11-27T08:22:13.031Z,34.47
2022-11-27T08:24:42.449Z,36.13
2022-11-27T08:27:10.763Z,35.00
2022-11-27T08:29:38.969Z,33.73
2022-11-27T08:32:07.485Z,33.00
2022-11-27T08:34:35.393Z,34.23
2022-11-27T08:37:05.043Z,33.50
2022-11-27T08:39:32.852Z,39.90
2022-11-27T08:42:01.125Z,35.80
2022-11-27T08:44:28.969Z,35.13
2022-11-27T08:46:56.841Z,35.53
2022-11-27T08:49:24.759Z,32.70
2022-11-27T08:51:52.723Z,34.17
2022-11-27T08:54:21.918Z,33.60
2022-11-27T08:56:49.863Z,38.00
2022-11-27T08:59:17.643Z,31.37
2022-11-27T09:01:45.673Z,38.57
2022-11-27T09:04:13.615Z,36.33
2022-11-27T09:06:42.667Z,34.27
2022-11-27T09:09:10.772Z,37.47
2022-11-27T09:11:40.125Z,31.23
2022-11-27T09:14:08.616Z,29.40
2022-11-27T09:16:37.072Z,27.07
2022-11-27T09:19:04.973Z,31.83
2022-11-27T09:21:32.927Z,30.87
2022-11-27T09:24:02.756Z,30.97
2022-11-27T09:26:31.185Z,25.40
2022-11-27T09:29:00.441Z,27.97
2022-11-27T09:31:28.702Z,29.57
2022-11-27T09:33:56.607Z,26.77
2022-11-27T09:36:26.005Z,28.20
2022-11-27T09:38:54.710Z,26.47
2022-11-27T09:41:40.217Z,34.90
2022-11-27T09:44:20.767Z,29.23
2022-11-27T09:46:49.346Z,28.27
2022-11-27T09:49:21.226Z,31.30
2022-11-27T09:51:53.032Z,33.37
2022-11-27T09:54:26.145Z,29.60
2022-11-27T09:56:56.681Z,29.90
2022-11-27T09:59:34.512Z,33.03
2022-11-27T10:02:02.578Z,33.23
2022-11-27T10:04:44.905Z,27.93
2022-11-27T10:07:30.685Z,29.43
2022-11-27T10:10:09.022Z,24.73
2022-11-27T10:12:47.580Z,24.67
2022-11-27T10:15:21.907Z,22.30
2022-11-27T10:17:54.112Z,23.13
2022-11-27T10:20:29.401Z,27.63
2022-11-27T10:23:04.065Z,29.33
2022-11-27T10:25:39.753Z,30.33
2022-11-27T10:28:19.398Z,24.40
2022-11-27T10:30:52.465Z,22.30
2022-11-27T10:33:24.980Z,26.10
2022-11-27T10:35:53.958Z,27.67
2022-11-27T10:38:26.447Z,27.90
2022-11-27T10:41:02.479Z,27.27
2022-11-27T10:43:30.460Z,24.70
2022-11-27T10:46:05.522Z,25.23
2022-11-27T10:48:34.317Z,23.00
2022-11-27T10:51:02.164Z,27.97
2022-11-27T10:53:32.455Z,26.07
2022-11-27T10:56:16.093Z,24.40
2022-11-27T10:58:51.846Z,27.93
2022-11-27T11:01:22.997Z,21.83
2022-11-27T11:03:51.538Z,23.33
2022-11-27T11:06:23.456Z,24.53
2022-11-27T11:09:04.324Z,22.77
2022-11-27T11:11:32.344Z,24.77
2022-11-27T11:14:00.163Z,23.77
2022-11-27T11:16:35.328Z,25.60
2022-11-27T11:19:06.050Z,21.13
2022-11-27T11:21:36.601Z,21.83
2022-11-27T11:24:07.367Z,21.30
2022-11-27T11:26:38.914Z,20.87
2022-11-27T11:29:27.892Z,22.13
2022-11-27T11:32:01.736Z,18.93
2022-11-27T11:34:31.244Z,19.83
2022-11-27T11:37:01.000Z,22.13
2022-11-27T11:39:30.852Z,19.20
2022-11-27T11:41:59.017Z,22.70
2022-11-27T11:44:34.032Z,20.23
2022-11-27T11:47:03.257Z,19.57
2022-11-27T11:49:34.264Z,20.37
2022-11-27T11:52:21.996Z,21.13
2022-11-27T11:54:59.518Z,20.83
2022-11-27T11:58:10.014Z,21.60
2022-11-27T12:01:11.427Z,20.07
2022-11-27T12:03:52.191Z,18.30
2022-11-27T12:06:42.804Z,25.10
2022-11-27T12:09:23.329Z,20.27
2022-11-27T12:11:58.293Z,20.00
2022-11-27T12:14:42.221Z,22.03
2022-11-27T12:17:24.251Z,21.20
2022-11-27T12:20:15.417Z,22.30
2022-11-27T12:23:23.904Z,21.20
2022-11-27T12:26:00.042Z,22.53
2022-11-27T12:28:58.981Z,19.93
2022-11-27T12:31:43.383Z,18.47
2022-11-27T12:34:22.674Z,19.43
2022-11-27T12:37:07.056Z,18.07
2022-11-27T12:39:51.639Z,20.87
2022-11-27T12:42:24.260Z,23.23
2022-11-27T12:44:57.716Z,19.87
2022-11-27T12:47:30.733Z,26.97
2022-11-27T12:50:01.409Z,22.03
2022-11-27T12:52:35.437Z,18.93
2022-11-27T12:55:06.550Z,21.47
2022-11-27T12:57:40.897Z,19.57
2022-11-27T13:00:16.604Z,16.83
2022-11-27T13:02:54.964Z,17.83
2022-11-27T13:05:27.120Z,19.67
2022-11-27T13:08:02.227Z,20.40
2022-11-27T13:10:35.169Z,23.43
2022-11-27T13:13:06.800Z,18.97
2022-11-27T13:15:40.887Z,20.03
2022-11-27T13:18:19.631Z,23.00
2022-11-27T13:20:52.345Z,20.90
2022-11-27T13:23:22.189Z,22.67
2022-11-27T13:25:54.925Z,20.57
2022-11-27T13:28:28.112Z,22.23
2022-11-27T13:31:00.523Z,18.50
2022-11-27T13:33:38.216Z,20.20
2022-11-27T13:36:08.915Z,20.67
2022-11-27T13:38:41.890Z,20.07
2022-11-27T13:41:20.497Z,20.27
2022-11-27T13:43:50.236Z,22.67
2022-11-27T13:46:23.500Z,22.73
2022-11-27T13:48:54.731Z,23.23
2022-11-27T13:51:29.204Z,18.37
2022-11-27T13:54:10.850Z,19.27
2022-11-27T13:56:39.352Z,20.13
2022-11-27T13:59:17.940Z,21.20
2022-11-27T14:02:00.040Z,20.63
2022-11-27T14:04:28.707Z,21.47
2022-11-27T14:07:03.220Z,19.20
2022-11-27T14:09:38.924Z,18.23
2022-11-27T14:12:20.399Z,19.70
2022-11-27T14:15:01.267Z,21.00
2022-11-27T14:17:36.684Z,16.47
2022-11-27T14:20:09.803Z,18.17
2022-11-27T14:23:07.547Z,18.83
2022-11-27T14:25:37.174Z,17.53
2022-11-27T14:28:15.255Z,18.13
2022-11-27T14:30:47.454Z,21.43
2022-11-27T14:33:19.928Z,17.93
2022-11-27T14:35:51.982Z,19.40
2022-11-27T14:38:20.289Z,20.57
2022-11-27T14:40:51.547Z,19.77
2022-11-27T14:43:23.822Z,21.07
2022-11-27T14:45:54.172Z,22.53
2022-11-27T14:48:24.203Z,20.93
2022-11-27T14:50:53.858Z,18.70
2022-11-27T14:53:24.200Z,18.03
2022-11-27T14:55:57.084Z,20.50
2022-11-27T14:58:28.661Z,20.97
2022-11-27T15:00:59.824Z,22.13
2022-11-27T15:03:28.361Z,22.40
2022-11-27T15:05:59.500Z,19.33
2022-11-27T15:08:28.109Z,20.80
2022-11-27T15:10:59.448Z,19.27
2022-11-27T15:13:30.248Z,18.60
2022-11-27T15:16:03.057Z,19.10
2022-11-27T15:18:33.457Z,19.27
2022-11-27T15:21:02.809Z,19.60
2022-11-27T15:23:34.034Z,20.80
2022-11-27T15:26:15.017Z,21.47
2022-11-27T15:28:50.882Z,19.27
2022-11-27T15:31:28.365Z,19.90
2022-11-27T15:33:58.674Z,21.50
2022-11-27T15:36:27.267Z,17.10
2022-11-27T15:39:06.405Z,21.63
2022-11-27T15:41:40.814Z,19.83
2022-11-27T15:44:11.346Z,20.43
2022-11-27T15:46:42.605Z,17.87
2022-11-27T15:49:14.120Z,18.40
2022-11-27T15:51:42.153Z,19.57
2022-11-27T15:54:10.059Z,19.70
2022-11-27T15:56:39.229Z,20.70
2022-11-27T15:59:07.402Z,20.63
2022-11-27T16:01:35.421Z,21.30
2022-11-27T16:04:03.400Z,17.93
2022-11-27T16:06:32.412Z,18.67
2022-11-27T16:09:02.053Z,19.97
2022-11-27T16:11:31.563Z,19.03
2022-11-27T16:14:00.757Z,17.07
2022-11-27T16:16:28.864Z,18.47
2022-11-27T16:19:00.759Z,20.53
2022-11-27T16:21:30.353Z,20.30
2022-11-27T16:23:59.516Z,21.50
2022-11-27T16:26:28.028Z,21.43
2022-11-27T16:28:56.121Z,20.83
2022-11-27T16:31:25.783Z,23.03
2022-11-27T16:33:54.203Z,25.30
2022-11-27T16:36:25.479Z,22.40
2022-11-27T16:38:54.475Z,21.30
2022-11-27T16:41:25.115Z,25.17
2022-11-27T16:43:57.856Z,20.27
2022-11-27T16:46:29.811Z,27.57
2022-11-27T16:49:00.686Z,25.83
2022-11-27T16:51:33.253Z,24.53
2022-11-27T16:54:03.406Z,21.97
2022-11-27T16:56:33.911Z,23.40
2022-11-27T16:59:09.643Z,21.80
2022-11-27T17:01:40.806Z,23.10
2022-11-27T17:04:10.746Z,23.57
2022-11-27T17:06:39.763Z,23.37
2022-11-27T17:09:09.264Z,26.33
2022-11-27T17:11:41.791Z,22.80
2022-11-27T17:14:10.599Z,29.23
2022-11-27T17:16:41.245Z,22.03
2022-11-27T17:19:13.565Z,26.27
2022-11-27T17:21:42.897Z,25.60
2022-11-27T17:24:15.317Z,25.43
2022-11-27T17:26:46.638Z,25.83
2022-11-27T17:29:20.814Z,28.80
2022-11-27T17:31:53.132Z,24.47
2022-11-27T17:34:21.533Z,23.77
2022-11-27T17:36:53.452Z,24.43
2022-11-27T17:39:22.061Z,23.33
2022-11-27T17:41:50.030Z,25.27
2022-11-27T17:44:17.915Z,25.33
2022-11-27T17:46:49.778Z,25.33
2022-11-27T17:49:21.810Z,25.07
2022-11-27T17:51:50.716Z,26.83
2022-11-27T17:54:19.366Z,22.97
2022-11-27T17:56:51.256Z,24.17
2022-11-27T17:59:19.696Z,24.90
2022-11-27T18:01:48.337Z,23.07
2022-11-27T18:04:16.334Z,24.40
2022-11-27T18:06:45.780Z,27.17
2022-11-27T18:09:13.629Z,22.07
2022-11-27T18:11:41.793Z,24.43
2022-11-27T18:14:13.359Z,24.17
2022-11-27T18:16:42.113Z,22.83
2022-11-27T18:19:11.873Z,19.53
2022-11-27T18:21:40.040Z,26.37
2022-11-27T18:24:25.248Z,23.97
2022-11-27T18:27:08.274Z,26.43
2022-11-27T18:29:37.630Z,24.57
2022-11-27T18:32:06.203Z,25.63
2022-11-27T18:34:34.546Z,24.13
2022-11-27T18:37:02.545Z,22.23
2022-11-27T18:39:32.311Z,22.87
2022-11-27T18:42:00.192Z,25.27
2022-11-27T18:44:28.237Z,23.00
2022-11-27T18:46:56.595Z,24.23
2022-11-27T18:49:24.499Z,23.33
2022-11-27T18:51:53.225Z,24.77
2022-11-27T18:54:21.806Z,22.77
2022-11-27T18:56:51.039Z,22.70
2022-11-27T18:59:19.661Z,22.10
2022-11-27T19:01:47.825Z,20.73
2022-11-27T19:04:15.949Z,20.10
2022-11-27T19:06:44.367Z,19.80
2022-11-27T19:09:13.663Z,20.10
2022-11-27T19:11:42.390Z,22.20
2022-11-27T19:14:11.788Z,21.37
2022-11-27T19:16:45.791Z,21.50
2022-11-27T19:19:53.015Z,20.73
2022-11-27T19:22:04.441Z,22.90
2022-11-27T19:24:32.919Z,21.17
2022-11-27T19:27:01.324Z,22.67
2022-11-27T19:29:30.503Z,20.77
2022-11-27T19:32:00.904Z,21.80
2022-11-27T19:34:28.881Z,24.93
2022-11-27T19:36:58.022Z,21.10
2022-11-27T19:39:26.913Z,22.43
2022-11-27T19:41:54.842Z,18.73
2022-11-27T19:44:24.504Z,20.80
2022-11-27T19:46:55.097Z,20.67
2022-11-27T19:49:23.968Z,23.33
2022-11-27T19:51:51.852Z,22.17
2022-11-27T19:54:21.701Z,20.50
2022-11-27T19:56:51.449Z,22.33
2022-11-27T19:59:25.346Z,19.90
2022-11-27T20:01:56.360Z,21.00
2022-11-27T20:04:29.205Z,21.60
2022-11-27T20:06:57.109Z,21.50
2022-11-27T20:09:25.047Z,21.00
2022-11-27T20:11:52.890Z,20.80
2022-11-27T20:14:20.877Z,20.20
2022-11-27T20:16:48.832Z,18.57
2022-11-27T20:19:19.143Z,20.17
2022-11-27T20:21:47.073Z,20.87
2022-11-27T20:24:15.425Z,19.47
2022-11-27T20:26:43.907Z,19.53
2022-11-27T20:29:12.721Z,23.13
2022-11-27T20:31:44.333Z,22.43
2022-11-27T20:34:18.506Z,20.47
2022-11-27T20:36:48.452Z,19.47
2022-11-27T20:39:20.947Z,21.63
2022-11-27T20:41:51.650Z,21.83
2022-11-27T20:44:19.580Z,20.87
2022-11-27T20:46:47.557Z,20.93
2022-11-27T20:49:16.256Z,19.17
2022-11-27T20:51:46.507Z,23.33
2022-11-27T20:54:16.091Z,23.43
2022-11-27T20:56:45.520Z,23.80
2022-11-27T20:59:14.295Z,22.60
2022-11-27T21:01:42.433Z,21.83
2022-11-27T21:04:20.737Z,24.33
2022-11-27T21:06:49.023Z,21.40
2022-11-27T21:09:19.366Z,24.03
2022-11-27T21:11:47.983Z,22.20
2022-11-27T21:14:17.125Z,21.70
2022-11-27T21:16:48.419Z,21.57
2022-11-27T21:19:19.720Z,19.97
2022-11-27T21:21:48.246Z,25.40
2022-11-27T21:24:18.215Z,21.73
2022-11-27T21:26:46.984Z,20.83
2022-11-27T21:29:16.850Z,23.23
2022-11-27T21:31:47.208Z,19.07
2022-11-27T21:34:16.805Z,18.33
2022-11-27T21:36:45.641Z,22.43
2022-11-27T21:39:20.028Z,21.87
2022-11-27T21:41:51.272Z,20.03
2022-11-27T21:44:20.851Z,21.60
2022-11-27T21:46:49.243Z,22.30
2022-11-27T21:49:19.952Z,19.83
2022-11-27T21:51:50.990Z,19.77
2022-11-27T21:54:19.071Z,20.10
2022-11-27T21:56:47.037Z,22.27
2022-11-27T21:59:16.867Z,19.63
2022-11-27T22:01:46.215Z,18.97
2022-11-27T22:04:14.171Z,21.07
2022-11-27T22:06:45.105Z,20.17
2022-11-27T22:09:15.803Z,20.50
2022-11-27T22:11:45.509Z,21.20
2022-11-27T22:14:16.764Z,19.10
2022-11-27T22:16:46.625Z,20.23
2022-11-27T22:19:17.213Z,19.27
2022-11-27T22:21:45.387Z,20.33
2022-11-27T22:24:18.895Z,17.40
2022-11-27T22:26:50.624Z,22.40
2022-11-27T22:29:20.102Z,18.37
2022-11-27T22:31:47.987Z,18.63
2022-11-27T22:34:16.977Z,18.30
2022-11-27T22:36:45.933Z,18.77
2022-11-27T22:39:14.333Z,18.80
2022-11-27T22:41:42.928Z,18.07
2022-11-27T22:44:14.918Z,18.30
2022-11-27T22:46:45.008Z,19.27
2022-11-27T22:49:18.304Z,16.90
2022-11-27T22:51:47.346Z,19.63
2022-11-27T22:54:17.748Z,18.33
2022-11-27T22:56:47.442Z,17.60
2022-11-27T22:59:33.583Z,16.30
2022-11-27T23:02:04.949Z,17.30
2022-11-27T23:04:33.724Z,18.73
2022-11-27T23:07:01.744Z,17.93
2022-11-27T23:09:30.723Z,16.73
2022-11-27T23:11:58.893Z,16.20
2022-11-27T23:14:27.543Z,17.50
2022-11-27T23:16:55.524Z,14.97
2022-11-27T23:19:24.784Z,17.37
2022-11-27T23:21:52.833Z,15.30
2022-11-27T23:24:20.848Z,17.73
2022-11-27T23:26:48.721Z,16.10
2022-11-27T23:29:16.709Z,14.97
2022-11-27T23:31:44.772Z,15.43
2022-11-27T23:34:15.795Z,19.53
2022-11-27T23:36:45.197Z,18.13
2022-11-27T23:39:14.804Z,17.17
2022-11-27T23:41:43.400Z,15.37
2022-11-27T23:44:11.392Z,12.43
2022-11-27T23:46:39.238Z,15.80
2022-11-27T23:49:07.031Z,15.13
2022-11-27T23:51:35.069Z,14.80
2022-11-27T23:54:09.088Z,15.37
2022-11-27T23:56:37.410Z,13.83
2022-11-27T23:59:05.381Z,12.73
